Time;durP1;ratioP1;P1;durP2;ratioP2;P2;SDS_P1;SDS_P2;PMS_P1;PMS_P2;Temp;Humidity;BMP_temperature;BMP_pressure;BME280_temperature;BME280_humidity;BME280_pressure;Samples;Min_cycle;Max_cycle;Signal;HPM_P1;HPM_P2
2022/07/18 00:01:28;;;;;;;16.02;7.30;;;19.50;99.90;;;;;;4973346;28;20082;-66
2022/07/18 00:03:54;;;;;;;16.08;7.38;;;19.50;99.90;;;;;;4972750;28;20448;-67
2022/07/18 00:06:19;;;;;;;15.73;7.20;;;19.50;99.90;;;;;;4972460;28;20049;-67
2022/07/18 00:08:45;;;;;;;13.38;5.97;;;19.40;99.90;;;;;;4971857;28;20026;-69
2022/07/18 00:11:10;;;;;;;15.50;6.68;;;19.50;99.90;;;;;;4972280;28;20022;-67
2022/07/18 00:13:36;;;;;;;12.93;6.07;;;19.50;99.90;;;;;;4972864;28;20066;-68
2022/07/18 00:16:02;;;;;;;14.32;6.32;;;19.40;99.90;;;;;;4973069;28;20035;-68
2022/07/18 00:18:27;;;;;;;12.77;6.50;;;19.40;99.90;;;;;;4972997;28;20134;-67
2022/07/18 00:20:53;;;;;;;13.95;6.35;;;19.40;99.90;;;;;;4972004;28;20023;-67
2022/07/18 00:23:19;;;;;;;13.10;5.90;;;19.30;99.90;;;;;;4971822;28;20113;-67
2022/07/18 00:25:44;;;;;;;15.68;6.00;;;19.30;99.90;;;;;;4973008;28;20038;-68
2022/07/18 00:28:11;;;;;;;13.82;6.18;;;19.30;99.90;;;;;;4973287;28;20135;-67
2022/07/18 00:30:38;;;;;;;13.90;6.25;;;19.30;99.90;;;;;;4971908;28;20341;-67
2022/07/18 00:33:03;;;;;;;13.32;5.95;;;19.30;99.90;;;;;;4971696;28;20088;-69
2022/07/18 00:35:29;;;;;;;13.38;6.20;;;19.30;99.90;;;;;;4973556;28;20492;-67
2022/07/18 00:37:55;;;;;;;12.93;6.18;;;19.20;99.90;;;;;;4972909;28;20026;-68
2022/07/18 00:40:20;;;;;;;14.18;6.45;;;19.20;99.90;;;;;;4973611;28;20465;-67
2022/07/18 00:42:46;;;;;;;14.05;5.70;;;19.20;99.90;;;;;;4971888;28;20110;-66
2022/07/18 00:45:12;;;;;;;13.20;6.10;;;19.10;99.90;;;;;;4972976;28;20055;-67
2022/07/18 00:47:39;;;;;;;12.50;6.00;;;19.10;99.90;;;;;;4972561;28;20129;-67
2022/07/18 00:50:07;;;;;;;15.73;6.60;;;19.10;99.90;;;;;;4973174;28;20034;-68
2022/07/18 00:52:33;;;;;;;15.43;6.43;;;19.10;99.90;;;;;;4972908;28;20126;-66
2022/07/18 00:54:59;;;;;;;14.70;6.05;;;19.00;99.90;;;;;;4972963;28;20039;-69
2022/07/18 00:57:26;;;;;;;15.35;6.63;;;19.00;99.90;;;;;;4972630;28;20030;-66
2022/07/18 01:02:37;;;;;;;15.18;6.57;;;18.90;99.90;;;;;;4972989;28;20029;-66
2022/07/18 01:05:03;;;;;;;17.90;6.93;;;18.90;99.90;;;;;;4972894;28;20027;-67
2022/07/18 01:07:29;;;;;;;17.42;6.50;;;18.80;99.90;;;;;;4972916;28;20085;-68
2022/07/18 01:09:54;;;;;;;12.25;6.03;;;18.80;99.90;;;;;;4972905;28;20405;-67
2022/07/18 01:12:20;;;;;;;13.52;6.60;;;18.80;99.90;;;;;;4973106;28;20235;-67
2022/07/18 01:14:46;;;;;;;16.73;8.20;;;18.70;99.90;;;;;;4972767;28;20361;-67
2022/07/18 01:17:17;;;;;;;16.95;8.27;;;18.70;99.90;;;;;;4973080;28;20029;-67
2022/07/18 01:19:43;;;;;;;14.80;7.28;;;18.70;99.90;;;;;;4972785;28;20030;-67
2022/07/18 01:22:10;;;;;;;15.77;7.30;;;18.60;99.90;;;;;;4972947;28;20031;-67
2022/07/18 01:24:35;;;;;;;11.57;5.82;;;18.60;99.90;;;;;;4972722;28;20022;-70
2022/07/18 01:27:01;;;;;;;14.27;6.93;;;18.50;99.90;;;;;;4972325;28;20030;-66
2022/07/18 01:29:26;;;;;;;12.80;6.15;;;18.50;99.90;;;;;;4972759;28;20027;-68
2022/07/18 01:31:52;;;;;;;12.95;6.35;;;18.50;99.90;;;;;;4972681;28;20464;-69
2022/07/18 01:34:24;;;;;;;14.02;6.25;;;18.50;99.90;;;;;;4971341;28;20022;-68
2022/07/18 01:36:49;;;;;;;13.30;6.55;;;18.50;99.90;;;;;;4973125;28;20109;-69
2022/07/18 01:39:15;;;;;;;12.27;5.97;;;18.40;99.90;;;;;;4972712;28;20165;-66
2022/07/18 01:41:40;;;;;;;15.23;6.18;;;18.40;99.90;;;;;;4972837;28;20069;-67
2022/07/18 01:44:06;;;;;;;12.02;5.82;;;18.40;99.90;;;;;;4972422;28;20026;-66
2022/07/18 01:46:32;;;;;;;11.32;5.80;;;18.40;99.90;;;;;;4975729;28;20487;-68
2022/07/18 01:48:58;;;;;;;12.43;5.60;;;18.40;99.90;;;;;;4975990;28;20023;-69
2022/07/18 01:51:23;;;;;;;11.75;5.78;;;18.30;99.90;;;;;;4976507;28;20054;-67
2022/07/18 01:53:59;;;;;;;14.25;5.47;;;18.30;99.90;;;;;;4976110;28;20029;-67
2022/07/18 01:56:25;;;;;;;11.90;5.43;;;18.30;99.90;;;;;;4975742;28;20365;-69
2022/07/18 01:58:51;;;;;;;13.98;5.82;;;18.30;99.90;;;;;;4975908;28;20031;-69
2022/07/18 02:01:16;;;;;;;14.73;5.78;;;18.30;99.90;;;;;;4975613;28;20338;-66
2022/07/18 02:03:42;;;;;;;12.77;5.85;;;18.30;99.90;;;;;;4975830;28;20022;-67
2022/07/18 02:06:07;;;;;;;13.77;5.38;;;18.30;99.90;;;;;;4975721;28;20122;-66
2022/07/18 02:08:33;;;;;;;11.30;5.47;;;18.30;99.90;;;;;;4975422;28;20392;-66
2022/07/18 02:10:59;;;;;;;11.43;5.43;;;18.30;99.90;;;;;;4975492;28;20048;-67
2022/07/18 02:13:24;;;;;;;13.20;5.40;;;18.30;99.90;;;;;;4975518;28;20026;-66
2022/07/18 02:15:50;;;;;;;13.50;5.43;;;18.30;99.90;;;;;;4975606;28;20038;-67
2022/07/18 02:18:16;;;;;;;16.80;5.57;;;18.30;99.90;;;;;;4975580;28;20023;-66
2022/07/18 02:20:42;;;;;;;12.68;5.13;;;18.30;99.90;;;;;;4975633;28;20045;-66
2022/07/18 02:23:07;;;;;;;13.13;5.43;;;18.30;99.90;;;;;;4975462;28;20026;-67
2022/07/18 02:25:34;;;;;;;16.25;5.95;;;18.30;99.90;;;;;;4974333;28;20042;-67
2022/07/18 02:28:00;;;;;;;15.05;5.72;;;18.30;99.90;;;;;;4977701;28;21065;-66
2022/07/18 02:30:26;;;;;;;12.00;5.07;;;18.30;99.90;;;;;;4975259;28;20030;-70
2022/07/18 02:32:51;;;;;;;11.88;5.50;;;18.30;99.90;;;;;;4975425;28;20432;-67
2022/07/18 02:35:17;;;;;;;13.77;5.30;;;18.20;99.90;;;;;;4975238;28;20417;-67
2022/07/18 02:37:43;;;;;;;16.63;5.35;;;18.30;99.90;;;;;;4975273;28;20031;-68
2022/07/18 02:40:10;;;;;;;13.43;5.28;;;18.20;99.90;;;;;;4974768;28;20030;-67
2022/07/18 02:42:36;;;;;;;13.10;5.32;;;18.20;99.90;;;;;;4975250;28;20023;-67
2022/07/18 02:45:03;;;;;;;11.60;5.32;;;18.20;99.90;;;;;;4973483;28;20050;-66
2022/07/18 02:47:29;;;;;;;10.80;4.90;;;18.20;99.90;;;;;;4975252;28;20085;-67
2022/07/18 02:49:54;;;;;;;15.50;5.60;;;18.20;99.90;;;;;;4975173;28;20054;-67
2022/07/18 02:52:21;;;;;;;14.50;4.70;;;18.20;99.90;;;;;;4975064;28;20022;-68
2022/07/18 02:54:46;;;;;;;11.70;5.00;;;18.10;99.90;;;;;;4974609;28;20030;-67
2022/07/18 02:57:12;;;;;;;12.32;5.15;;;18.10;99.90;;;;;;4974514;28;20019;-67
2022/07/18 02:59:38;;;;;;;13.38;5.70;;;18.10;99.90;;;;;;4974848;28;20357;-67
2022/07/18 03:02:03;;;;;;;14.32;5.57;;;18.10;99.90;;;;;;4974669;28;20030;-68
2022/07/18 03:04:29;;;;;;;12.50;5.65;;;18.10;99.90;;;;;;4974836;28;20107;-68
2022/07/18 03:06:55;;;;;;;12.52;5.30;;;18.10;99.90;;;;;;4973367;28;20089;-67
2022/07/18 03:09:20;;;;;;;11.48;5.65;;;18.10;99.90;;;;;;4974128;28;20023;-67
2022/07/18 03:11:47;;;;;;;13.25;5.68;;;18.10;99.90;;;;;;4974618;28;20031;-69
2022/07/18 03:14:12;;;;;;;15.20;5.88;;;18.10;99.90;;;;;;4974591;28;20346;-67
2022/07/18 03:16:38;;;;;;;14.15;5.65;;;18.10;99.90;;;;;;4974565;28;20031;-67
2022/07/18 03:19:03;;;;;;;18.02;6.00;;;18.00;99.90;;;;;;4973100;28;20030;-67
2022/07/18 03:21:29;;;;;;;12.32;5.25;;;18.00;99.90;;;;;;4974273;28;20058;-66
2022/07/18 03:23:56;;;;;;;17.27;6.30;;;18.00;99.90;;;;;;4973721;28;20022;-68
2022/07/18 03:26:21;;;;;;;15.20;6.35;;;18.00;99.90;;;;;;4974487;28;20074;-69
2022/07/18 03:28:47;;;;;;;16.10;6.88;;;18.00;99.90;;;;;;4972966;28;20049;-67
2022/07/18 03:31:13;;;;;;;14.18;5.88;;;17.90;99.90;;;;;;4974336;28;20026;-69
2022/07/18 03:33:39;;;;;;;15.85;6.80;;;18.00;99.90;;;;;;4974289;28;20022;-67
2022/07/18 03:36:05;;;;;;;17.75;6.20;;;17.90;99.90;;;;;;4974308;28;20041;-64
2022/07/18 03:38:31;;;;;;;16.23;5.93;;;17.90;99.90;;;;;;4973868;28;20473;-66
2022/07/18 03:40:57;;;;;;;12.00;5.80;;;17.90;99.90;;;;;;4973689;28;20190;-67
2022/07/18 03:43:22;;;;;;;14.43;6.05;;;17.90;99.90;;;;;;4974298;28;20092;-66
2022/07/18 03:45:48;;;;;;;11.85;5.80;;;17.90;99.90;;;;;;4973781;28;20074;-68
2022/07/18 03:48:14;;;;;;;15.32;5.70;;;17.80;99.90;;;;;;4974074;28;20049;-67
2022/07/18 03:50:39;;;;;;;15.18;6.03;;;17.80;99.90;;;;;;4973939;28;20030;-68
2022/07/18 03:53:05;;;;;;;12.52;5.78;;;17.70;99.90;;;;;;4973357;28;20027;-69
2022/07/18 03:55:30;;;;;;;12.10;5.00;;;17.80;99.90;;;;;;4973687;28;20034;-67
2022/07/18 03:57:56;;;;;;;13.63;5.65;;;17.80;99.90;;;;;;4973234;28;20098;-68
2022/07/18 04:00:21;;;;;;;15.95;5.65;;;17.80;99.90;;;;;;4972613;28;20523;-68
2022/07/18 04:02:48;;;;;;;13.15;5.22;;;17.80;99.90;;;;;;4972120;28;20038;-70
2022/07/18 04:05:14;;;;;;;13.65;5.25;;;17.70;99.90;;;;;;4973556;28;20046;-67
2022/07/18 04:07:41;;;;;;;14.98;5.43;;;17.70;99.90;;;;;;4972921;28;20022;-68
2022/07/18 04:10:07;;;;;;;11.88;5.38;;;17.70;99.90;;;;;;4973260;28;20089;-70
2022/07/18 04:12:33;;;;;;;11.50;5.50;;;17.80;99.90;;;;;;4973026;28;20082;-67
2022/07/18 04:14:59;;;;;;;13.70;5.40;;;17.80;99.90;;;;;;4973539;28;20038;-70
2022/07/18 04:17:24;;;;;;;13.10;5.38;;;17.80;99.90;;;;;;4973374;28;20134;-68
2022/07/18 04:19:51;;;;;;;10.52;4.97;;;17.80;99.90;;;;;;4973494;28;20372;-68
2022/07/18 04:22:17;;;;;;;14.25;5.43;;;17.80;99.90;;;;;;4973104;28;20337;-67
2022/07/18 04:24:43;;;;;;;12.05;4.60;;;17.90;99.90;;;;;;4972904;28;20030;-67
2022/07/18 04:27:09;;;;;;;10.73;4.75;;;17.90;99.90;;;;;;4973344;28;20056;-69
2022/07/18 04:29:36;;;;;;;13.93;5.03;;;17.90;99.90;;;;;;4972919;28;20338;-67
2022/07/18 04:32:02;;;;;;;13.70;5.25;;;17.90;99.90;;;;;;4973063;28;20023;-68
2022/07/18 04:34:27;;;;;;;12.98;4.90;;;17.90;99.90;;;;;;4973187;28;20022;-66
2022/07/18 04:36:53;;;;;;;12.13;4.68;;;18.00;99.90;;;;;;4973444;28;20051;-67
2022/07/18 04:39:18;;;;;;;12.95;5.10;;;18.00;99.90;;;;;;4972770;28;20035;-66
2022/07/18 04:41:44;;;;;;;15.30;5.93;;;18.00;99.90;;;;;;4973044;28;20449;-67
2022/07/18 04:44:09;;;;;;;11.00;4.88;;;18.00;99.90;;;;;;4972984;28;20062;-69
2022/07/18 04:46:35;;;;;;;10.82;4.93;;;18.10;99.90;;;;;;4972994;28;20367;-70
2022/07/18 04:49:01;;;;;;;11.80;4.63;;;18.10;99.90;;;;;;4972655;28;20054;-68
2022/07/18 04:51:26;;;;;;;12.18;4.50;;;18.10;99.90;;;;;;4972748;28;20035;-67
2022/07/18 04:53:54;;;;;;;12.00;4.68;;;18.20;99.90;;;;;;4972627;28;20019;-67
2022/07/18 04:56:20;;;;;;;10.70;4.85;;;18.20;99.90;;;;;;4973043;28;20019;-69
2022/07/18 04:58:46;;;;;;;11.50;4.55;;;18.20;99.90;;;;;;4972843;28;20023;-69
2022/07/18 05:01:11;;;;;;;10.02;4.53;;;18.30;99.90;;;;;;4973281;28;20078;-67
2022/07/18 05:03:37;;;;;;;10.18;4.18;;;18.30;99.90;;;;;;4973228;28;20039;-67
2022/07/18 05:06:02;;;;;;;12.20;4.78;;;18.40;99.90;;;;;;4972247;28;20035;-69
2022/07/18 05:08:28;;;;;;;9.55;4.18;;;18.50;99.90;;;;;;4972373;28;20085;-71
2022/07/18 05:10:53;;;;;;;9.02;4.53;;;18.60;99.80;;;;;;4972856;28;20046;-68
2022/07/18 05:13:19;;;;;;;8.98;4.28;;;18.70;99.60;;;;;;4973164;28;20023;-68
2022/07/18 05:15:45;;;;;;;22.75;10.45;;;18.90;99.40;;;;;;4973132;28;20034;-68
2022/07/18 05:18:10;;;;;;;9.57;4.85;;;19.10;99.30;;;;;;4973502;28;20031;-68
2022/07/18 05:20:36;;;;;;;12.05;4.63;;;19.20;99.00;;;;;;4974627;28;20023;-69
2022/07/18 05:23:01;;;;;;;13.65;4.70;;;19.40;98.70;;;;;;4976860;28;20034;-68
2022/07/18 05:25:27;;;;;;;12.18;4.38;;;19.60;98.50;;;;;;4976789;28;20039;-67
2022/07/18 05:27:53;;;;;;;9.43;4.13;;;19.80;98.10;;;;;;4976469;28;20029;-67
2022/07/18 05:30:19;;;;;;;10.30;4.18;;;20.00;98.00;;;;;;4976613;28;20106;-67
2022/07/18 05:32:47;;;;;;;10.40;4.00;;;20.20;97.20;;;;;;4974351;28;20503;-67
2022/07/18 05:35:13;;;;;;;11.88;4.70;;;20.40;96.70;;;;;;4975550;28;20037;-72
2022/07/18 05:37:40;;;;;;;10.43;4.45;;;20.70;96.40;;;;;;4976361;28;20493;-68
2022/07/18 05:40:08;;;;;;;12.32;4.80;;;20.90;95.80;;;;;;4975301;28;20444;-68
2022/07/18 05:42:34;;;;;;;13.65;4.38;;;21.20;95.20;;;;;;4974258;28;20034;-66
2022/07/18 05:44:59;;;;;;;13.43;4.63;;;21.50;94.70;;;;;;4975734;28;20062;-66
2022/07/18 05:47:25;;;;;;;17.52;4.88;;;21.90;94.20;;;;;;4976394;28;20070;-68
2022/07/18 05:49:51;;;;;;;15.15;5.40;;;22.30;93.50;;;;;;4975489;28;20015;-70
2022/07/18 05:52:16;;;;;;;12.95;4.45;;;22.50;92.90;;;;;;4976151;28;20401;-66
2022/07/18 05:54:42;;;;;;;13.07;4.90;;;22.60;92.40;;;;;;4976073;28;20053;-67
2022/07/18 05:57:07;;;;;;;16.73;4.90;;;22.90;92.20;;;;;;4976067;28;20026;-66
2022/07/18 05:59:33;;;;;;;8.40;4.00;;;23.20;91.80;;;;;;4974417;28;20070;-67
2022/07/18 06:01:59;;;;;;;12.68;5.20;;;23.40;91.40;;;;;;4973897;28;20085;-67
2022/07/18 06:04:24;;;;;;;7.40;4.45;;;23.60;90.90;;;;;;4974581;28;20701;-66
2022/07/18 06:06:50;;;;;;;10.23;4.20;;;24.30;89.90;;;;;;4975536;28;20031;-68
2022/07/18 06:09:17;;;;;;;10.23;3.92;;;25.20;88.30;;;;;;4975703;28;20030;-67
2022/07/18 06:11:42;;;;;;;10.43;4.35;;;26.20;85.80;;;;;;4975487;28;20026;-66
2022/07/18 06:14:08;;;;;;;11.57;3.97;;;27.10;83.80;;;;;;4975625;28;20027;-69
2022/07/18 06:16:34;;;;;;;18.42;3.90;;;27.90;80.40;;;;;;4975622;28;20027;-67
2022/07/18 06:18:59;;;;;;;10.73;4.45;;;28.20;76.60;;;;;;4974821;28;20109;-66
2022/07/18 06:21:25;;;;;;;9.90;4.45;;;28.60;76.40;;;;;;4975273;28;20034;-70
2022/07/18 06:23:51;;;;;;;10.65;4.40;;;29.20;75.40;;;;;;4975288;28;20373;-68
2022/07/18 06:26:17;;;;;;;14.65;4.72;;;30.00;73.10;;;;;;4974864;28;20038;-69
2022/07/18 06:28:42;;;;;;;10.65;4.70;;;30.60;70.70;;;;;;4974675;28;20476;-69
2022/07/18 06:31:08;;;;;;;8.90;4.90;;;31.20;68.90;;;;;;4974826;28;20022;-68
2022/07/18 06:33:33;;;;;;;12.75;4.70;;;31.90;67.80;;;;;;4974871;28;20023;-68
2022/07/18 06:35:59;;;;;;;12.27;4.07;;;32.10;66.70;;;;;;4975331;28;20062;-69
2022/07/18 06:38:24;;;;;;;8.75;3.72;;;31.70;65.70;;;;;;4975137;28;20026;-67
2022/07/18 06:40:50;;;;;;;9.85;4.03;;;30.80;66.10;;;;;;4973559;28;20106;-69
2022/07/18 06:43:19;;;;;;;13.02;4.90;;;30.10;66.70;;;;;;4973663;28;20114;-67
2022/07/18 06:45:47;;;;;;;9.55;4.95;;;29.50;68.20;;;;;;4972851;28;20031;-66
2022/07/18 06:48:14;;;;;;;9.75;4.22;;;29.20;69.00;;;;;;4974359;28;20471;-67
2022/07/18 06:50:40;;;;;;;13.30;4.10;;;29.50;68.40;;;;;;4974715;28;20134;-69
2022/07/18 06:53:05;;;;;;;13.85;4.57;;;29.60;68.10;;;;;;4974565;28;20094;-67
2022/07/18 06:55:31;;;;;;;10.70;4.03;;;29.80;67.70;;;;;;4974420;28;20081;-67
2022/07/18 06:57:56;;;;;;;11.93;4.18;;;30.60;66.50;;;;;;4974932;28;20053;-67
2022/07/18 07:00:22;;;;;;;9.38;4.03;;;31.20;65.00;;;;;;4974590;28;20038;-68
2022/07/18 07:02:49;;;;;;;10.23;3.80;;;31.30;65.10;;;;;;4973604;28;20023;-67
2022/07/18 07:05:17;;;;;;;11.32;3.90;;;31.70;64.00;;;;;;4972566;28;20109;-67
2022/07/18 07:07:43;;;;;;;10.98;4.00;;;32.40;63.10;;;;;;4972659;28;20034;-67
2022/07/18 07:10:10;;;;;;;9.30;3.92;;;33.00;61.70;;;;;;4970212;28;20102;-69
2022/07/18 07:12:47;;;;;;;9.20;4.15;;;33.60;60.80;;;;;;4972312;28;20023;-68
2022/07/18 07:15:14;;;;;;;10.57;4.03;;;34.30;59.60;;;;;;4971186;28;20019;-69
2022/07/18 07:17:40;;;;;;;11.98;4.32;;;34.70;58.50;;;;;;4973187;28;20073;-67
2022/07/18 07:20:06;;;;;;;10.38;3.65;;;34.90;57.90;;;;;;4974097;28;20026;-68
2022/07/18 07:22:45;;;;;;;9.00;4.30;;;35.20;57.40;;;;;;4974508;28;20034;-67
2022/07/18 07:25:11;;;;;;;9.75;3.80;;;35.60;57.30;;;;;;4972233;28;20031;-67
2022/07/18 07:27:37;;;;;;;8.77;4.10;;;35.50;56.90;;;;;;4973606;28;20389;-67
2022/07/18 07:30:04;;;;;;;9.85;3.97;;;34.80;56.20;;;;;;4973989;28;20038;-70
2022/07/18 07:32:34;;;;;;;9.15;4.05;;;33.70;57.20;;;;;;4974176;28;20026;-69
2022/07/18 07:35:00;;;;;;;8.40;3.60;;;32.60;58.00;;;;;;4974176;28;20011;-67
2022/07/18 07:37:25;;;;;;;9.23;3.70;;;31.80;59.10;;;;;;4973970;28;20023;-71
2022/07/18 07:39:51;;;;;;;12.60;4.00;;;31.60;59.60;;;;;;4973939;28;20019;-68
2022/07/18 07:42:16;;;;;;;10.57;4.07;;;31.40;60.00;;;;;;4973411;28;20839;-68
2022/07/18 07:44:42;;;;;;;11.35;4.22;;;31.10;60.40;;;;;;4973011;28;20469;-66
2022/07/18 07:47:07;;;;;;;11.45;4.07;;;31.20;61.00;;;;;;4971150;28;20429;-69
2022/07/18 07:49:34;;;;;;;8.02;3.92;;;31.50;60.50;;;;;;4967976;28;20022;-68
2022/07/18 07:52:00;;;;;;;11.13;4.18;;;31.50;60.40;;;;;;4973628;28;20021;-66
2022/07/18 07:54:26;;;;;;;8.98;3.58;;;31.50;60.40;;;;;;4972423;28;20054;-66
2022/07/18 07:56:51;;;;;;;9.00;4.00;;;31.50;60.80;;;;;;4973594;28;20054;-69
2022/07/18 07:59:17;;;;;;;8.98;3.95;;;31.40;60.20;;;;;;4973970;28;20023;-67
2022/07/18 08:01:43;;;;;;;7.43;3.97;;;31.30;60.70;;;;;;4973704;28;20143;-66
2022/07/18 08:04:09;;;;;;;12.60;4.00;;;31.20;60.60;;;;;;4972363;28;20031;-66
2022/07/18 08:06:34;;;;;;;10.65;4.35;;;31.20;60.90;;;;;;4973545;28;20027;-66
2022/07/18 08:09:00;;;;;;;8.30;4.25;;;31.20;61.20;;;;;;4973819;28;20465;-66
2022/07/18 08:11:26;;;;;;;11.63;3.80;;;31.20;60.80;;;;;;4973937;28;20109;-67
2022/07/18 08:13:51;;;;;;;10.75;4.00;;;31.10;61.30;;;;;;4973600;28;20054;-69
2022/07/18 08:16:17;;;;;;;10.25;3.75;;;31.00;61.60;;;;;;4972680;28;20034;-67
2022/07/18 08:18:42;;;;;;;7.40;3.50;;;30.90;61.90;;;;;;4973501;28;20027;-70
2022/07/18 08:21:08;;;;;;;10.63;3.80;;;30.90;61.30;;;;;;4973227;28;20110;-67
2022/07/18 08:23:33;;;;;;;7.95;3.70;;;30.70;61.70;;;;;;4973020;28;20058;-66
2022/07/18 08:25:59;;;;;;;7.60;3.28;;;30.60;62.30;;;;;;4973240;28;20057;-68
2022/07/18 08:28:25;;;;;;;7.57;3.63;;;30.60;62.70;;;;;;4973235;28;20023;-66
2022/07/18 08:30:50;;;;;;;13.60;4.03;;;30.60;61.80;;;;;;4973343;28;20094;-67
2022/07/18 08:33:16;;;;;;;8.48;3.58;;;30.50;62.60;;;;;;4973546;28;20098;-67
2022/07/18 08:35:41;;;;;;;10.40;4.07;;;30.50;62.10;;;;;;4972387;28;20381;-67
2022/07/18 08:38:07;;;;;;;9.30;3.25;;;30.60;62.40;;;;;;4973345;28;20038;-66
2022/07/18 08:40:33;;;;;;;8.05;3.33;;;30.90;62.20;;;;;;4973258;28;20031;-70
2022/07/18 08:42:59;;;;;;;11.50;3.50;;;31.40;61.80;;;;;;4973521;28;20457;-65
2022/07/18 08:45:25;;;;;;;9.65;3.35;;;31.80;61.40;;;;;;4973336;28;20047;-66
2022/07/18 08:47:51;;;;;;;7.57;2.75;;;32.00;61.10;;;;;;4973152;28;20023;-69
2022/07/18 08:50:18;;;;;;;12.85;3.58;;;32.00;61.00;;;;;;4973479;28;20019;-67
2022/07/18 08:52:44;;;;;;;6.80;2.80;;;31.80;60.60;;;;;;4973663;28;20031;-69
2022/07/18 08:55:10;;;;;;;8.20;3.05;;;31.90;61.00;;;;;;4975929;28;20027;-67
2022/07/18 08:57:37;;;;;;;10.43;3.10;;;32.80;60.00;;;;;;4977836;28;20033;-68
2022/07/18 09:00:07;;;;;;;10.63;2.90;;;34.20;57.90;;;;;;4977662;28;20373;-68
2022/07/18 09:02:33;;;;;;;11.50;3.20;;;35.60;56.30;;;;;;4978337;28;20735;-66
2022/07/18 09:05:01;;;;;;;14.00;2.90;;;37.00;54.40;;;;;;4976656;28;20264;-68
2022/07/18 09:07:30;;;;;;;8.00;2.60;;;38.00;53.60;;;;;;4977192;28;20042;-67
2022/07/18 09:09:58;;;;;;;5.45;2.47;;;39.00;52.00;;;;;;4976949;28;20037;-69
2022/07/18 09:12:26;;;;;;;8.85;3.40;;;39.70;51.00;;;;;;4976986;28;20073;-66
2022/07/18 09:14:51;;;;;;;8.35;2.95;;;40.30;50.60;;;;;;4977011;28;20054;-68
2022/07/18 09:17:20;;;;;;;11.75;3.40;;;41.20;49.70;;;;;;4977260;28;20416;-67
2022/07/18 09:20:08;;;;;;;8.55;3.38;;;41.90;48.20;;;;;;4977241;28;20504;-68
2022/07/18 09:22:39;;;;;;;6.22;2.40;;;42.20;46.70;;;;;;4976972;28;20540;-67
2022/07/18 09:25:12;;;;;;;7.28;2.80;;;42.30;46.80;;;;;;4976915;28;20046;-67
2022/07/18 09:27:43;;;;;;;5.70;2.78;;;42.50;46.40;;;;;;4977264;28;20022;-69
2022/07/18 09:30:26;;;;;;;8.70;2.70;;;42.70;46.40;;;;;;4976837;28;20396;-67
2022/07/18 09:33:02;;;;;;;8.65;2.67;;;43.10;45.40;;;;;;4976248;28;20142;-68
2022/07/18 09:35:29;;;;;;;6.55;2.67;;;43.50;44.80;;;;;;4975962;28;20030;-66
2022/07/18 09:38:01;;;;;;;4.28;2.30;;;43.90;44.40;;;;;;4974997;28;20027;-66
2022/07/18 09:40:30;;;;;;;8.20;2.55;;;44.30;43.90;;;;;;4976136;28;20453;-67
2022/07/18 09:43:08;;;;;;;6.47;2.30;;;44.40;43.50;;;;;;4975970;28;20034;-67
2022/07/18 09:45:37;;;;;;;10.18;2.58;;;44.50;43.40;;;;;;4975856;28;20579;-66
2022/07/18 09:48:15;;;;;;;10.20;2.92;;;44.60;42.80;;;;;;4976263;28;20089;-69
2022/07/18 09:50:48;;;;;;;7.72;2.50;;;44.80;42.40;;;;;;4976162;28;20114;-67
2022/07/18 09:53:19;;;;;;;6.78;2.10;;;44.80;42.00;;;;;;4976396;28;20042;-70
2022/07/18 09:55:53;;;;;;;5.65;2.30;;;45.10;41.50;;;;;;4976583;28;20218;-67
2022/07/18 09:58:23;;;;;;;7.63;2.38;;;45.40;41.70;;;;;;4976370;28;20071;-68
2022/07/18 10:00:49;;;;;;;;;;;45.50;41.80;;;;;;4976750;28;20030;-67
2022/07/18 10:03:15;;;;;;;6.07;2.35;;;45.80;41.00;;;;;;4976347;28;19902;-67
2022/07/18 10:05:42;;;;;;;5.47;1.70;;;45.80;40.70;;;;;;4975604;28;20039;-68
2022/07/18 10:08:11;;;;;;;8.00;2.20;;;46.00;40.20;;;;;;4975118;28;20354;-67
2022/07/18 10:10:38;;;;;;;6.50;2.38;;;45.80;40.30;;;;;;4975479;28;20037;-67
2022/07/18 10:13:04;;;;;;;3.22;2.08;;;45.70;40.20;;;;;;4975671;28;20109;-69
2022/07/18 10:15:33;;;;;;;6.43;2.03;;;45.80;40.20;;;;;;4976534;28;20023;-70
2022/07/18 10:18:00;;;;;;;4.90;2.03;;;46.00;39.30;;;;;;4975737;28;20029;-70
2022/07/18 10:20:32;;;;;;;5.85;2.47;;;46.10;40.50;;;;;;4973707;28;20026;-67
2022/07/18 10:23:06;;;;;;;5.43;2.00;;;46.40;39.70;;;;;;4974670;28;20384;-68
2022/07/18 10:25:32;;;;;;;3.53;2.15;;;46.50;39.40;;;;;;4975819;28;20077;-68
2022/07/18 10:28:08;;;;;;;3.35;2.65;;;46.40;39.10;;;;;;4975021;28;20138;-67
2022/07/18 10:30:49;;;;;;;9.23;2.13;;;46.40;39.40;;;;;;4974219;28;20027;-67
2022/07/18 10:33:41;;;;;;;9.05;2.30;;;46.40;39.10;;;;;;4974053;28;20029;-68
2022/07/18 10:36:09;;;;;;;8.27;2.10;;;46.50;39.00;;;;;;4975681;28;20030;-65
2022/07/18 10:38:35;;;;;;;4.35;2.05;;;46.70;39.00;;;;;;4975378;28;20019;-68
2022/07/18 10:41:03;;;;;;;5.78;2.20;;;46.30;39.10;;;;;;4973927;28;20050;-69
2022/07/18 10:43:32;;;;;;;4.82;2.15;;;46.00;38.90;;;;;;4974752;28;20023;-67
2022/07/18 10:46:02;;;;;;;4.55;2.05;;;45.70;39.40;;;;;;4975316;28;20444;-67
2022/07/18 10:48:33;;;;;;;5.57;2.28;;;45.80;38.90;;;;;;4975431;28;20045;-68
2022/07/18 10:51:06;;;;;;;5.63;2.33;;;46.00;37.70;;;;;;4975327;28;20027;-68
2022/07/18 10:53:59;;;;;;;5.38;2.20;;;46.00;38.30;;;;;;4975537;28;20022;-69
2022/07/18 10:56:28;;;;;;;3.58;2.05;;;46.40;37.90;;;;;;4975200;28;20034;-67
2022/07/18 10:59:14;;;;;;;7.13;2.75;;;46.80;38.10;;;;;;4975003;28;20452;-67
2022/07/18 11:01:51;;;;;;;4.25;2.47;;;47.40;37.60;;;;;;4975307;28;20049;-68
2022/07/18 11:04:30;;;;;;;5.18;2.60;;;47.80;36.90;;;;;;4975118;28;20027;-67
2022/07/18 11:07:09;;;;;;;4.25;2.13;;;48.10;36.80;;;;;;4955671;28;20118;-67
2022/07/18 11:09:47;;;;;;;8.23;2.50;;;48.10;36.60;;;;;;4954391;28;20431;-66
2022/07/18 11:12:31;;;;;;;5.20;2.42;;;47.70;37.00;;;;;;4955771;28;20426;-68
2022/07/18 11:15:13;;;;;;;5.45;2.67;;;47.40;36.80;;;;;;4955360;28;20037;-67
2022/07/18 11:17:56;;;;;;;6.88;2.67;;;47.30;37.10;;;;;;4954550;28;20106;-67
2022/07/18 11:20:40;;;;;;;4.50;2.28;;;47.50;37.00;;;;;;4955572;28;20114;-67
2022/07/18 11:23:26;;;;;;;5.03;2.25;;;47.70;36.90;;;;;;4955646;28;20458;-67
2022/07/18 11:25:54;;;;;;;8.60;2.30;;;48.10;36.60;;;;;;4954615;28;20043;-69
2022/07/18 11:28:20;;;;;;;6.53;2.30;;;48.30;36.70;;;;;;4955455;28;20035;-67
2022/07/18 11:31:02;;;;;;;4.53;1.95;;;48.30;36.50;;;;;;4955540;28;20137;-68
2022/07/18 11:33:30;;;;;;;4.90;2.40;;;48.50;36.40;;;;;;4955589;28;20026;-68
2022/07/18 11:36:06;;;;;;;4.38;2.10;;;49.00;36.20;;;;;;4973439;28;20038;-68
2022/07/18 11:38:32;;;;;;;3.92;2.35;;;49.40;35.90;;;;;;4974172;28;20540;-68
2022/07/18 11:40:57;;;;;;;6.00;2.50;;;49.40;35.90;;;;;;4974511;28;20041;-68
2022/07/18 11:43:24;;;;;;;4.97;2.10;;;49.30;36.20;;;;;;4974348;28;20034;-68
2022/07/18 11:46:11;;;;;;;3.00;2.10;;;49.10;36.10;;;;;;4974163;28;20050;-68
2022/07/18 11:48:38;;;;;;;7.00;2.13;;;49.00;36.00;;;;;;4974337;28;20018;-67
2022/07/18 11:51:13;;;;;;;5.80;2.55;;;49.30;36.20;;;;;;4974062;28;20425;-69
2022/07/18 11:53:47;;;;;;;5.85;2.45;;;49.50;35.80;;;;;;4974338;28;20018;-67
2022/07/18 11:56:14;;;;;;;4.25;2.20;;;49.50;36.00;;;;;;4974399;28;20499;-67
2022/07/18 11:58:41;;;;;;;4.53;2.08;;;49.60;35.70;;;;;;4971119;28;20392;-68
2022/07/18 12:01:07;;;;;;;6.53;2.00;;;49.60;35.70;;;;;;4973616;28;20189;-68
2022/07/18 12:03:39;;;;;;;5.90;1.88;;;49.80;35.70;;;;;;4974151;28;20691;-69
2022/07/18 12:06:19;;;;;;;5.38;2.10;;;49.90;35.80;;;;;;4973487;28;20030;-70
2022/07/18 12:08:52;;;;;;;5.93;2.40;;;49.80;35.50;;;;;;4975370;28;20030;-69
2022/07/18 12:11:32;;;;;;;8.30;2.20;;;49.90;35.50;;;;;;4974472;28;20031;-67
2022/07/18 12:14:04;;;;;;;7.13;2.20;;;49.90;35.70;;;;;;4973838;28;20070;-66
2022/07/18 12:16:35;;;;;;;7.32;2.20;;;50.10;35.60;;;;;;4973738;28;20445;-67
2022/07/18 12:19:10;;;;;;;5.65;2.50;;;50.00;35.30;;;;;;4973706;28;20030;-69
2022/07/18 12:21:39;;;;;;;5.43;2.03;;;49.80;35.70;;;;;;4973442;28;20049;-66
2022/07/18 12:24:27;;;;;;;6.45;2.28;;;49.60;35.30;;;;;;4973758;28;20077;-70
2022/07/18 12:27:21;;;;;;;6.43;2.35;;;49.00;35.30;;;;;;4971223;28;20047;-68
2022/07/18 12:30:03;;;;;;;7.00;2.75;;;49.20;35.60;;;;;;4972898;28;20019;-66
2022/07/18 12:32:51;;;;;;;5.45;2.30;;;49.00;35.30;;;;;;4973536;28;20102;-66
2022/07/18 12:35:18;;;;;;;5.47;2.15;;;48.40;35.50;;;;;;4973602;28;20037;-69
2022/07/18 12:37:55;;;;;;;4.20;2.13;;;48.30;35.80;;;;;;4973546;28;20102;-67
2022/07/18 12:40:21;;;;;;;4.03;2.00;;;48.10;35.60;;;;;;4973193;28;20042;-66
2022/07/18 12:42:48;;;;;;;3.88;2.10;;;48.00;35.50;;;;;;4973188;28;20023;-69
2022/07/18 12:45:15;;;;;;;3.47;2.55;;;47.90;35.60;;;;;;4973229;28;20150;-68
2022/07/18 12:47:40;;;;;;;5.45;2.45;;;47.80;35.30;;;;;;4973602;28;20101;-69